createdAt,value
2019-01-22T00:00:58.067Z,87.82
2019-01-22T00:01:58.061Z,88.45
2019-01-22T00:02:58.063Z,87.93
2019-01-22T00:03:58.049Z,87.93
2019-01-22T00:04:58.030Z,88.35
2019-01-22T00:05:58.017Z,88.87
2019-01-22T00:06:58.010Z,89.09
2019-01-22T00:07:57.996Z,88.66
2019-01-22T00:08:57.997Z,89.40
2019-01-22T00:09:57.979Z,88.98
2019-01-22T00:10:57.964Z,88.92
2019-01-22T00:11:57.953Z,88.98
2019-01-22T00:12:57.966Z,88.98
2019-01-22T00:13:57.961Z,88.66
2019-01-22T00:14:57.957Z,88.98
2019-01-22T00:15:57.906Z,88.87
2019-01-22T00:16:57.902Z,88.87
2019-01-22T00:17:57.884Z,88.77
2019-01-22T00:18:57.873Z,88.45
2019-01-22T00:19:57.903Z,88.87
2019-01-22T00:20:57.935Z,88.87
2019-01-22T00:21:57.841Z,88.77
2019-01-22T00:23:02.760Z,88.77
2019-01-22T00:23:58.823Z,89.40
2019-01-22T00:24:57.813Z,89.09
2019-01-22T00:25:57.849Z,89.44
2019-01-22T00:26:57.811Z,89.23
2019-01-22T00:27:57.779Z,88.77
2019-01-22T00:28:57.770Z,88.87
2019-01-22T00:29:57.756Z,88.87
2019-01-22T00:30:57.805Z,88.98
2019-01-22T00:31:57.772Z,88.87
2019-01-22T00:32:57.729Z,88.66
2019-01-22T00:33:57.719Z,88.35
2019-01-22T00:34:57.704Z,88.66
2019-01-22T00:35:57.700Z,88.13
2019-01-22T00:36:57.681Z,88.66
2019-01-22T00:37:57.683Z,88.45
2019-01-22T00:38:57.662Z,88.24
2019-01-22T00:39:57.653Z,88.13
2019-01-22T00:40:57.643Z,88.24
2019-01-22T00:41:57.628Z,87.93
2019-01-22T00:42:57.625Z,88.13
2019-01-22T00:43:57.604Z,88.35
2019-01-22T00:44:57.604Z,87.93
2019-01-22T00:45:57.628Z,88.03
2019-01-22T00:46:57.575Z,88.13
2019-01-22T00:47:57.609Z,88.13
2019-01-22T00:48:57.632Z,88.03
2019-01-22T00:49:57.540Z,88.35
2019-01-22T00:50:57.535Z,88.24
2019-01-22T00:51:57.527Z,88.03
2019-01-22T00:52:57.521Z,87.86
2019-01-22T00:53:57.497Z,88.13
2019-01-22T00:54:57.495Z,87.61
2019-01-22T00:55:57.476Z,87.54
2019-01-22T00:56:57.464Z,87.93
2019-01-22T00:57:57.463Z,87.76
2019-01-22T00:58:57.488Z,88.03
2019-01-22T00:59:57.439Z,88.28
2019-01-22T01:00:57.424Z,88.03
2019-01-22T01:01:58.306Z,88.07
2019-01-22T01:02:58.271Z,88.18
2019-01-22T01:03:57.394Z,87.96
2019-01-22T01:04:57.389Z,88.49
2019-01-22T01:05:57.374Z,88.70
2019-01-22T01:06:57.357Z,88.81
2019-01-22T01:07:57.355Z,88.70
2019-01-22T01:08:57.351Z,89.02
2019-01-22T01:09:57.332Z,88.49
2019-01-22T01:10:57.315Z,88.66
2019-01-22T01:11:57.307Z,88.70
2019-01-22T01:12:57.310Z,88.49
2019-01-22T01:13:57.354Z,88.70
2019-01-22T01:14:57.278Z,88.70
2019-01-22T01:15:57.263Z,88.28
2019-01-22T01:16:57.252Z,88.39
2019-01-22T01:17:57.240Z,88.18
2019-01-22T01:18:57.271Z,88.70
2019-01-22T01:19:57.224Z,88.70
2019-01-22T01:20:57.209Z,88.70
2019-01-22T01:21:57.211Z,88.70
2019-01-22T01:22:57.192Z,88.81
2019-01-22T01:23:57.236Z,88.81
2019-01-22T01:24:57.175Z,88.92
2019-01-22T01:25:57.160Z,89.02
2019-01-22T01:26:57.151Z,88.70
2019-01-22T01:27:57.141Z,89.23
2019-01-22T01:28:57.123Z,89.02
2019-01-22T01:29:57.145Z,89.23
2019-01-22T01:30:57.130Z,89.12
2019-01-22T01:31:57.095Z,89.12
2019-01-22T01:32:57.125Z,88.92
2019-01-22T01:33:57.074Z,89.34
2019-01-22T01:34:57.057Z,89.23
2019-01-22T01:35:57.067Z,89.34
2019-01-22T01:36:57.079Z,89.12
2019-01-22T01:37:57.040Z,88.92
2019-01-22T01:38:57.016Z,89.02
2019-01-22T01:39:57.009Z,89.23
2019-01-22T01:40:56.995Z,89.34
2019-01-22T01:41:57.067Z,89.34
2019-01-22T01:42:56.980Z,89.54
2019-01-22T01:43:56.981Z,89.76
2019-01-22T01:44:56.956Z,89.23
2019-01-22T01:45:56.941Z,89.23
2019-01-22T01:46:56.990Z,89.23
2019-01-22T01:47:56.927Z,89.34
2019-01-22T01:48:56.913Z,89.12
2019-01-22T01:49:56.903Z,89.23
2019-01-22T01:50:56.893Z,88.92
2019-01-22T01:51:56.892Z,88.92
2019-01-22T01:52:56.908Z,88.92
2019-01-22T01:53:56.864Z,88.70
2019-01-22T01:54:56.863Z,89.44
2019-01-22T01:55:56.853Z,89.02
2019-01-22T01:56:56.833Z,89.02
2019-01-22T01:57:56.834Z,89.23
2019-01-22T01:58:56.839Z,89.34
2019-01-22T01:59:56.796Z,89.23
2019-01-22T02:00:56.779Z,89.23
2019-01-22T02:01:56.769Z,88.92
2019-01-22T02:02:56.759Z,89.34
2019-01-22T02:03:56.777Z,89.23
2019-01-22T02:04:56.764Z,89.23
2019-01-22T02:05:56.726Z,89.27
2019-01-22T02:06:56.717Z,89.34
2019-01-22T02:07:56.710Z,89.44
2019-01-22T02:08:56.730Z,89.69
2019-01-22T02:09:56.695Z,89.34
2019-01-22T02:10:56.673Z,89.97
2019-01-22T02:11:56.684Z,89.79
2019-01-22T02:12:56.656Z,90.01
2019-01-22T02:13:56.668Z,89.76
2019-01-22T02:14:56.670Z,89.86
2019-01-22T02:15:56.620Z,90.01
2019-01-22T02:16:56.612Z,90.11
2019-01-22T02:17:56.600Z,89.86
2019-01-22T02:18:56.596Z,89.97
2019-01-22T02:19:56.638Z,89.86
2019-01-22T02:20:56.573Z,89.97
2019-01-22T02:21:56.558Z,89.76
2019-01-22T02:22:56.550Z,89.54
2019-01-22T02:23:56.535Z,89.54
2019-01-22T02:24:56.535Z,89.23
2019-01-22T02:25:56.542Z,89.76
2019-01-22T02:26:56.506Z,89.44
2019-01-22T02:27:56.522Z,89.23
2019-01-22T02:28:56.481Z,89.34
2019-01-22T02:29:56.474Z,89.34
2019-01-22T02:30:56.511Z,89.76
2019-01-22T02:31:56.450Z,89.34
2019-01-22T02:32:56.444Z,88.87
2019-01-22T02:33:56.426Z,89.40
2019-01-22T02:34:56.415Z,88.45
2019-01-22T02:35:56.405Z,88.45
2019-01-22T02:36:56.411Z,88.03
2019-01-22T02:37:56.396Z,87.82
2019-01-22T02:38:56.373Z,88.13
2019-01-22T02:39:56.369Z,88.45
2019-01-22T02:40:56.357Z,88.35
2019-01-22T02:41:56.389Z,87.82
2019-01-22T02:42:56.336Z,88.13
2019-01-22T02:43:56.330Z,87.93
2019-01-22T02:44:56.315Z,88.13
2019-01-22T02:45:56.303Z,88.13
2019-01-22T02:46:56.287Z,88.24
2019-01-22T02:47:56.319Z,87.93
2019-01-22T02:48:56.270Z,88.24
2019-01-22T02:49:56.280Z,88.03
2019-01-22T02:50:56.251Z,88.13
2019-01-22T02:51:56.240Z,87.61
2019-01-22T02:52:56.239Z,88.35
2019-01-22T02:53:56.256Z,87.93
2019-01-22T02:54:56.219Z,87.93
2019-01-22T02:55:56.205Z,87.93
2019-01-22T02:56:56.257Z,88.03
2019-01-22T02:57:56.176Z,87.50
2019-01-22T02:58:56.163Z,87.57
2019-01-22T02:59:56.166Z,87.61
2019-01-22T03:00:56.144Z,87.99
2019-01-22T03:01:56.128Z,87.68
2019-01-22T03:02:56.156Z,88.03
2019-01-22T03:03:56.104Z,87.93
2019-01-22T03:04:56.101Z,87.99
2019-01-22T03:05:56.166Z,87.40
2019-01-22T03:06:56.078Z,87.57
2019-01-22T03:07:56.105Z,87.99
2019-01-22T03:08:56.058Z,87.71
2019-01-22T03:09:56.046Z,87.82
2019-01-22T03:10:56.029Z,88.20
2019-01-22T03:11:56.019Z,87.68
2019-01-22T03:12:56.019Z,87.50
2019-01-22T03:13:56.012Z,87.57
2019-01-22T03:14:55.993Z,88.10
2019-01-22T03:15:56.825Z,88.03
2019-01-22T03:16:55.967Z,87.71
2019-01-22T03:17:55.965Z,87.99
2019-01-22T03:18:55.992Z,87.99
2019-01-22T03:19:55.942Z,88.03
2019-01-22T03:20:55.932Z,87.93
2019-01-22T03:21:55.918Z,88.03
2019-01-22T03:22:55.904Z,87.29
2019-01-22T03:23:55.900Z,88.24
2019-01-22T03:24:55.923Z,87.61
2019-01-22T03:25:55.869Z,87.93
2019-01-22T03:26:55.874Z,88.03
2019-01-22T03:27:55.848Z,87.40
2019-01-22T03:28:55.849Z,87.29
2019-01-22T03:29:55.857Z,87.82
2019-01-22T03:30:55.821Z,87.40
2019-01-22T03:31:55.815Z,87.93
2019-01-22T03:32:55.799Z,87.61
2019-01-22T03:33:55.801Z,87.61
2019-01-22T03:34:55.779Z,87.93
2019-01-22T03:35:55.850Z,87.82
2019-01-22T03:36:55.753Z,88.24
2019-01-22T03:37:55.769Z,88.35
2019-01-22T03:38:55.739Z,87.50
2019-01-22T03:39:55.740Z,88.35
2019-01-22T03:40:55.713Z,88.13
2019-01-22T03:41:55.758Z,87.61
2019-01-22T03:42:55.698Z,87.82
2019-01-22T03:43:55.696Z,87.93
2019-01-22T03:44:55.667Z,88.24
2019-01-22T03:45:55.660Z,87.61
2019-01-22T03:46:55.646Z,87.61
2019-01-22T03:47:55.659Z,87.82
2019-01-22T03:48:55.630Z,87.76
2019-01-22T03:49:55.619Z,87.61
2019-01-22T03:50:55.608Z,87.29
2019-01-22T03:51:55.600Z,88.03
2019-01-22T03:52:55.618Z,88.07
2019-01-22T03:53:55.577Z,87.54
2019-01-22T03:54:55.563Z,88.07
2019-01-22T03:55:55.551Z,87.96
2019-01-22T03:56:56.323Z,87.65
2019-01-22T03:57:56.328Z,87.76
2019-01-22T03:58:55.592Z,87.76
2019-01-22T03:59:55.505Z,88.07
2019-01-22T04:00:55.495Z,87.86
2019-01-22T04:01:55.485Z,87.96
2019-01-22T04:02:55.510Z,88.18
2019-01-22T04:03:55.469Z,88.28
2019-01-22T04:04:55.460Z,88.18
2019-01-22T04:05:55.449Z,87.86
2019-01-22T04:06:55.458Z,88.18
2019-01-22T04:07:55.418Z,88.07
2019-01-22T04:08:55.427Z,87.86
2019-01-22T04:09:55.396Z,88.39
2019-01-22T04:10:55.387Z,88.03
2019-01-22T04:11:55.401Z,87.61
2019-01-22T04:12:55.365Z,87.76
2019-01-22T04:13:55.387Z,87.96
2019-01-22T04:14:55.361Z,88.18
2019-01-22T04:15:55.333Z,88.70
2019-01-22T04:16:55.325Z,88.92
2019-01-22T04:17:55.346Z,88.92
2019-01-22T04:18:55.345Z,88.70
2019-01-22T04:19:55.297Z,88.18
2019-01-22T04:20:55.302Z,88.28
2019-01-22T04:21:55.397Z,88.28
2019-01-22T04:22:55.259Z,88.60
2019-01-22T04:24:01.601Z,87.96
2019-01-22T04:24:56.251Z,88.07
2019-01-22T04:25:55.233Z,88.07
2019-01-22T04:26:55.214Z,88.60
2019-01-22T04:27:55.252Z,88.70
2019-01-22T04:28:55.195Z,88.92
2019-01-22T04:29:55.183Z,88.92
2019-01-22T04:30:55.173Z,89.23
2019-01-22T04:31:55.188Z,89.12
2019-01-22T04:32:55.158Z,89.34
2019-01-22T04:33:55.166Z,89.23
2019-01-22T04:34:55.147Z,88.92
2019-01-22T04:35:55.123Z,89.54
2019-01-22T04:36:55.115Z,88.70
2019-01-22T04:37:55.102Z,87.96
2019-01-22T04:38:55.131Z,88.07
2019-01-22T04:39:55.113Z,88.07
2019-01-22T04:40:55.088Z,87.71
2019-01-22T04:41:55.055Z,87.61
2019-01-22T04:42:55.054Z,87.93
2019-01-22T04:43:55.041Z,87.61
2019-01-22T04:44:55.066Z,88.03
2019-01-22T04:45:55.012Z,87.40
2019-01-22T04:46:55.007Z,87.29
2019-01-22T04:47:54.990Z,87.36
2019-01-22T04:48:54.979Z,86.98
2019-01-22T04:49:54.970Z,87.25
2019-01-22T04:50:54.991Z,86.98
2019-01-22T04:51:54.991Z,86.87
2019-01-22T04:52:54.939Z,87.29
2019-01-22T04:53:54.934Z,87.08
2019-01-22T04:54:54.925Z,87.29
2019-01-22T04:55:54.961Z,87.93
2019-01-22T04:56:54.907Z,87.78
2019-01-22T04:57:54.922Z,87.40
2019-01-22T04:58:54.874Z,87.99
2019-01-22T04:59:54.862Z,87.61
2019-01-22T05:00:54.858Z,87.25
2019-01-22T05:01:54.847Z,87.36
2019-01-22T05:02:54.893Z,87.15
2019-01-22T05:03:54.824Z,88.10
2019-01-22T05:04:54.828Z,87.40
2019-01-22T05:05:54.827Z,86.72
2019-01-22T05:06:54.789Z,87.04
2019-01-22T05:07:54.782Z,87.15
2019-01-22T05:08:54.774Z,87.36
2019-01-22T05:09:54.763Z,86.72
2019-01-22T05:10:54.750Z,85.88
2019-01-22T05:11:54.741Z,86.94
2019-01-22T05:12:54.751Z,87.25
2019-01-22T05:13:54.745Z,87.50
2019-01-22T05:14:54.703Z,86.98
2019-01-22T05:15:54.697Z,87.36
2019-01-22T05:16:54.681Z,87.46
2019-01-22T05:17:54.669Z,86.94
2019-01-22T05:18:54.673Z,86.83
2019-01-22T05:19:54.652Z,86.83
2019-01-22T05:20:54.645Z,86.72
2019-01-22T05:21:54.631Z,87.08
2019-01-22T05:22:54.617Z,86.98
2019-01-22T05:23:54.615Z,85.92
2019-01-22T05:24:54.636Z,87.29
2019-01-22T05:25:54.587Z,87.33
2019-01-22T05:26:54.572Z,87.96
2019-01-22T05:27:54.566Z,87.65
2019-01-22T05:28:54.856Z,88.07
2019-01-22T05:29:54.562Z,87.61
2019-01-22T05:30:54.608Z,87.54
2019-01-22T05:31:54.526Z,87.65
2019-01-22T05:32:54.517Z,87.82
2019-01-22T05:33:54.533Z,87.29
2019-01-22T05:34:54.531Z,88.03
2019-01-22T05:35:54.476Z,87.86
2019-01-22T05:36:54.470Z,88.07
2019-01-22T05:37:54.455Z,87.44
2019-01-22T05:38:54.449Z,88.18
2019-01-22T05:39:54.462Z,87.19
2019-01-22T05:40:54.430Z,87.54
2019-01-22T05:41:54.416Z,87.33
2019-01-22T05:42:54.408Z,87.44
2019-01-22T05:43:54.413Z,87.02
2019-01-22T05:44:54.400Z,87.12
2019-01-22T05:45:54.489Z,86.91
2019-01-22T05:46:54.360Z,87.44
2019-01-22T05:47:54.348Z,87.23
2019-01-22T05:48:54.344Z,87.44
2019-01-22T05:49:54.332Z,88.03
2019-01-22T05:50:54.323Z,87.65
2019-01-22T05:51:54.340Z,87.33
2019-01-22T05:52:54.300Z,87.40
2019-01-22T05:53:54.282Z,86.66
2019-01-22T05:54:54.279Z,87.29
2019-01-22T05:55:54.296Z,86.24
2019-01-22T05:56:54.309Z,85.96
2019-01-22T05:57:54.244Z,86.80
2019-01-22T05:58:54.235Z,87.02
2019-01-22T05:59:54.219Z,86.38
2019-01-22T06:00:54.212Z,86.17
2019-01-22T06:01:54.203Z,86.80
2019-01-22T06:02:54.230Z,87.23
2019-01-22T06:03:54.227Z,87.44
2019-01-22T06:04:54.166Z,87.44
2019-01-22T06:05:54.185Z,87.76
2019-01-22T06:06:54.170Z,87.86
2019-01-22T06:07:54.133Z,87.96
2019-01-22T06:08:54.128Z,87.65
2019-01-22T06:09:54.112Z,88.18
2019-01-22T06:10:54.142Z,87.44
2019-01-22T06:11:54.092Z,87.33
2019-01-22T06:12:54.080Z,87.76
2019-01-22T06:13:54.073Z,87.76
2019-01-22T06:14:54.064Z,87.23
2019-01-22T06:15:54.053Z,87.96
2019-01-22T06:16:54.080Z,87.96
2019-01-22T06:17:54.030Z,88.07
2019-01-22T06:18:54.022Z,88.07
2019-01-22T06:19:54.010Z,87.23
2019-01-22T06:20:54.004Z,88.21
2019-01-22T06:21:54.028Z,87.96
2019-01-22T06:22:53.979Z,87.96
2019-01-22T06:23:53.961Z,87.76
2019-01-22T06:24:53.951Z,87.96
2019-01-22T06:25:53.939Z,87.65
2019-01-22T06:26:53.971Z,87.96
2019-01-22T06:27:53.920Z,88.39
2019-01-22T06:28:53.907Z,88.07
2019-01-22T06:29:53.897Z,87.96
2019-01-22T06:30:53.891Z,87.65
2019-01-22T06:31:53.875Z,87.69
2019-01-22T06:32:53.901Z,88.28
2019-01-22T06:33:53.878Z,87.65
2019-01-22T06:34:53.851Z,87.90
2019-01-22T06:35:53.836Z,88.18
2019-01-22T06:36:53.827Z,87.65
2019-01-22T06:37:53.839Z,88.18
2019-01-22T06:38:53.804Z,87.96
2019-01-22T06:39:53.793Z,87.86
2019-01-22T06:40:53.784Z,87.33
2019-01-22T06:41:53.773Z,87.29
2019-01-22T06:42:53.824Z,87.40
2019-01-22T06:43:53.745Z,85.92
2019-01-22T06:44:53.734Z,85.82
2019-01-22T06:45:53.727Z,86.38
2019-01-22T06:46:53.714Z,87.40
2019-01-22T06:47:53.701Z,87.23
2019-01-22T06:48:53.701Z,87.12
2019-01-22T06:49:53.681Z,87.33
2019-01-22T06:50:53.683Z,87.33
2019-01-22T06:51:53.664Z,87.44
2019-01-22T06:52:53.669Z,88.07
2019-01-22T06:53:53.661Z,87.76
2019-01-22T06:54:53.627Z,87.65
2019-01-22T06:55:53.621Z,87.76
2019-01-22T06:56:53.609Z,87.23
2019-01-22T06:57:53.601Z,86.45
2019-01-22T06:58:53.879Z,85.82
2019-01-22T06:59:54.350Z,86.03
2019-01-22T07:00:53.590Z,86.28
2019-01-22T07:01:53.615Z,86.13
2019-01-22T07:02:53.653Z,85.71
2019-01-22T07:03:53.542Z,85.82
2019-01-22T07:04:53.541Z,85.92
2019-01-22T07:05:53.549Z,85.92
2019-01-22T07:06:53.500Z,85.92
2019-01-22T07:07:53.492Z,85.92
2019-01-22T07:08:53.477Z,85.50
2019-01-22T07:09:53.507Z,85.50
2019-01-22T07:10:53.456Z,85.82
2019-01-22T07:11:53.450Z,86.03
2019-01-22T07:12:53.438Z,85.82
2019-01-22T07:13:53.429Z,85.82
2019-01-22T07:14:53.420Z,85.71
2019-01-22T07:15:53.478Z,85.61
2019-01-22T07:16:53.429Z,85.57
2019-01-22T07:17:53.385Z,85.71
2019-01-22T07:18:53.402Z,85.57
2019-01-22T07:19:53.422Z,85.92
2019-01-22T07:20:53.354Z,85.57
2019-01-22T07:21:53.385Z,85.46
2019-01-22T07:22:53.334Z,85.04
2019-01-22T07:23:53.318Z,85.08
2019-01-22T07:24:53.312Z,84.97
2019-01-22T07:25:53.299Z,85.08
2019-01-22T07:26:53.289Z,85.39
2019-01-22T07:27:53.304Z,85.71
2019-01-22T07:28:53.263Z,85.82
2019-01-22T07:29:53.289Z,86.07
2019-01-22T07:30:53.245Z,86.03
2019-01-22T07:31:53.231Z,86.03
2019-01-22T07:32:53.262Z,85.82
2019-01-22T07:33:53.210Z,85.82
2019-01-22T07:34:53.208Z,85.88
2019-01-22T07:35:53.204Z,85.57
2019-01-22T07:36:53.177Z,85.46
2019-01-22T07:37:53.214Z,85.36
2019-01-22T07:38:53.176Z,85.14
2019-01-22T07:39:53.152Z,85.39
2019-01-22T07:40:53.147Z,85.67
2019-01-22T07:41:53.141Z,85.78
2019-01-22T07:42:53.119Z,85.78
2019-01-22T07:43:53.112Z,85.67
2019-01-22T07:44:53.379Z,85.46
2019-01-22T07:45:53.080Z,85.25
2019-01-22T07:46:53.074Z,85.25
2019-01-22T07:47:53.088Z,85.04
2019-01-22T07:48:53.060Z,84.72
2019-01-22T07:49:53.095Z,83.84
2019-01-22T07:50:53.426Z,83.56
2019-01-22T07:51:53.018Z,83.95
2019-01-22T07:52:53.010Z,83.42
2019-01-22T07:53:53.035Z,83.95
2019-01-22T07:54:53.976Z,83.73
2019-01-22T07:55:52.974Z,83.63
2019-01-22T07:56:52.991Z,83.31
2019-01-22T07:57:52.979Z,83.49
2019-01-22T07:58:52.945Z,82.79
2019-01-22T07:59:52.929Z,83.28
2019-01-22T08:00:52.927Z,83.07
2019-01-22T08:01:52.919Z,82.97
2019-01-22T08:02:52.904Z,83.39
2019-01-22T08:03:52.894Z,82.65
2019-01-22T08:04:52.917Z,82.54
2019-01-22T08:05:52.876Z,81.70
2019-01-22T08:06:52.861Z,81.95
2019-01-22T08:07:52.868Z,82.47
2019-01-22T08:08:52.839Z,82.72
2019-01-22T08:09:52.836Z,82.51
2019-01-22T08:10:52.888Z,83.14
2019-01-22T08:11:52.898Z,83.46
2019-01-22T08:12:52.809Z,83.63
2019-01-22T08:13:52.780Z,83.31
2019-01-22T08:14:52.774Z,83.00
2019-01-22T08:15:52.823Z,82.47
2019-01-22T08:16:52.750Z,81.95
2019-01-22T08:17:52.738Z,82.40
2019-01-22T08:18:52.725Z,83.46
2019-01-22T08:19:52.745Z,83.36
2019-01-22T08:20:52.703Z,82.93
2019-01-22T08:21:52.799Z,83.56
2019-01-22T08:22:52.678Z,83.56
2019-01-22T08:23:52.673Z,83.04
2019-01-22T08:24:52.701Z,82.30
2019-01-22T08:25:52.657Z,82.40
2019-01-22T08:26:52.688Z,82.89
2019-01-22T08:27:52.626Z,82.30
2019-01-22T08:28:52.614Z,82.72
2019-01-22T08:29:52.665Z,83.78
2019-01-22T08:30:53.360Z,83.04
2019-01-22T08:31:52.587Z,82.62
2019-01-22T08:32:52.586Z,82.79
2019-01-22T08:33:52.566Z,82.93
2019-01-22T08:34:52.548Z,82.47
2019-01-22T08:35:52.581Z,82.68
2019-01-22T08:36:52.532Z,81.84
2019-01-22T08:37:52.515Z,81.95
2019-01-22T08:38:52.505Z,81.91
2019-01-22T08:39:52.516Z,81.74
2019-01-22T08:40:52.534Z,81.17
2019-01-22T08:41:52.476Z,81.07
2019-01-22T08:42:52.460Z,80.86
2019-01-22T08:43:52.457Z,80.86
2019-01-22T08:44:52.448Z,80.86
2019-01-22T08:45:52.436Z,80.65
2019-01-22T08:46:52.462Z,80.75
2019-01-22T08:47:52.406Z,79.49
2019-01-22T08:48:52.400Z,80.26
2019-01-22T08:49:52.391Z,80.96
2019-01-22T08:50:52.383Z,80.68
2019-01-22T08:51:52.406Z,81.14
2019-01-22T08:52:52.352Z,81.21
2019-01-22T08:53:52.347Z,80.90
2019-01-22T08:54:52.396Z,80.90
2019-01-22T08:55:52.355Z,80.79
2019-01-22T08:56:52.349Z,80.47
2019-01-22T08:57:52.304Z,80.65
2019-01-22T08:58:52.309Z,79.60
2019-01-22T08:59:52.276Z,80.40
2019-01-22T09:00:52.264Z,79.98
2019-01-22T09:01:52.294Z,79.87
2019-01-22T09:02:52.251Z,79.87
2019-01-22T09:03:52.238Z,79.87
2019-01-22T09:04:52.232Z,78.86
2019-01-22T09:05:52.235Z,79.70
2019-01-22T09:06:52.245Z,80.54
2019-01-22T09:07:52.206Z,80.22
2019-01-22T09:08:52.178Z,80.71
2019-01-22T09:09:52.171Z,79.77
2019-01-22T09:10:52.163Z,79.77
2019-01-22T09:11:52.170Z,79.63
2019-01-22T09:12:52.141Z,79.03
2019-01-22T09:13:52.121Z,78.89
2019-01-22T09:14:52.138Z,79.21
2019-01-22T09:15:52.111Z,78.68
2019-01-22T09:16:52.087Z,78.64
2019-01-22T09:17:52.092Z,78.22
2019-01-22T09:18:52.073Z,77.59
2019-01-22T09:19:52.062Z,77.00
2019-01-22T09:20:52.050Z,76.96
2019-01-22T09:21:52.035Z,77.21
2019-01-22T09:22:52.063Z,77.31
2019-01-22T09:23:52.053Z,76.79
2019-01-22T09:24:52.005Z,77.31
2019-01-22T09:25:51.991Z,78.58
2019-01-22T09:26:51.986Z,77.00
2019-01-22T09:27:52.016Z,76.79
2019-01-22T09:28:51.958Z,78.16
2019-01-22T09:29:51.954Z,77.84
2019-01-22T09:30:51.942Z,77.94
2019-01-22T09:31:51.927Z,76.93
2019-01-22T09:32:51.963Z,76.57
2019-01-22T09:33:51.917Z,75.07
2019-01-22T09:34:51.912Z,74.20
2019-01-22T09:35:51.888Z,72.66
2019-01-22T09:36:51.887Z,71.72
2019-01-22T09:37:51.881Z,71.93
2019-01-22T09:38:51.909Z,70.95
2019-01-22T09:39:51.863Z,70.85
2019-01-22T09:40:51.828Z,69.70
2019-01-22T09:41:51.816Z,70.01
2019-01-22T09:42:51.808Z,69.80
2019-01-22T09:43:51.793Z,69.04
2019-01-22T09:44:51.823Z,68.85
2019-01-22T09:45:51.876Z,68.54
2019-01-22T09:46:51.768Z,69.10
2019-01-22T09:47:51.825Z,69.80
2019-01-22T09:48:51.795Z,69.38
2019-01-22T09:49:51.808Z,69.90
2019-01-22T09:50:51.728Z,69.98
2019-01-22T09:51:51.715Z,68.82
2019-01-22T09:52:51.698Z,69.14
2019-01-22T09:53:51.690Z,69.45
2019-01-22T09:54:51.682Z,69.24
2019-01-22T09:55:51.702Z,68.72
2019-01-22T09:56:51.657Z,68.34
2019-01-22T09:57:51.647Z,67.79
2019-01-22T09:58:51.631Z,68.07
2019-01-22T09:59:51.620Z,67.31
2019-01-22T10:00:51.653Z,66.16
2019-01-22T10:01:51.604Z,65.43
2019-01-22T10:02:51.636Z,65.56
2019-01-22T10:03:51.755Z,66.99
2019-01-22T10:04:51.574Z,68.24
2019-01-22T10:05:51.571Z,67.72
2019-01-22T10:06:51.571Z,66.93
2019-01-22T10:07:51.538Z,66.89
2019-01-22T10:08:51.526Z,66.16
2019-01-22T10:09:51.510Z,66.27
2019-01-22T10:10:51.509Z,66.06
2019-01-22T10:11:51.519Z,65.61
2019-01-22T10:12:51.487Z,65.37
2019-01-22T10:13:51.471Z,63.98
2019-01-22T10:14:51.454Z,63.25
2019-01-22T10:15:51.443Z,63.32
2019-01-22T10:16:51.475Z,62.84
2019-01-22T10:17:51.433Z,62.81
2019-01-22T10:18:51.438Z,62.70
2019-01-22T10:19:51.403Z,62.46
2019-01-22T10:20:51.389Z,61.63
2019-01-22T10:21:51.383Z,60.97
2019-01-22T10:22:51.378Z,60.46
2019-01-22T10:23:51.397Z,60.53
2019-01-22T10:24:51.406Z,60.30
2019-01-22T10:25:51.334Z,58.94
2019-01-22T10:26:51.324Z,58.86
2019-01-22T10:27:51.319Z,59.00
2019-01-22T10:28:51.305Z,59.00
2019-01-22T10:29:51.291Z,59.59
2019-01-22T10:30:51.322Z,59.25
2019-01-22T10:31:51.273Z,57.71
2019-01-22T10:32:51.297Z,57.82
2019-01-22T10:33:51.252Z,57.90
2019-01-22T10:34:51.237Z,56.86
2019-01-22T10:35:51.262Z,56.96
2019-01-22T10:36:51.255Z,56.91
2019-01-22T10:37:51.202Z,55.22
2019-01-22T10:38:51.250Z,55.43
2019-01-22T10:39:51.185Z,54.44
2019-01-22T10:40:51.175Z,54.36
2019-01-22T10:41:51.166Z,54.03
2019-01-22T10:42:51.150Z,53.28
2019-01-22T10:43:51.205Z,52.62
2019-01-22T10:44:51.126Z,51.98
2019-01-22T10:45:51.119Z,50.84
2019-01-22T10:46:51.110Z,50.95
2019-01-22T10:47:51.096Z,50.40
2019-01-22T10:48:51.081Z,50.65
2019-01-22T10:49:51.122Z,50.47
2019-01-22T10:50:51.065Z,52.80
2019-01-22T10:51:51.060Z,52.91
2019-01-22T10:52:51.037Z,53.28
2019-01-22T10:53:51.030Z,52.62
2019-01-22T10:54:51.017Z,51.44
2019-01-22T10:55:51.046Z,50.40
2019-01-22T10:56:51.036Z,50.51
2019-01-22T10:57:51.013Z,51.44
2019-01-22T10:58:50.976Z,51.15
2019-01-22T10:59:51.062Z,52.11
2019-01-22T11:00:50.951Z,52.36
2019-01-22T11:01:50.942Z,53.97
2019-01-22T11:02:50.975Z,55.40
2019-01-22T11:03:50.923Z,55.84
2019-01-22T11:04:50.907Z,58.06
2019-01-22T11:05:50.928Z,57.87
2019-01-22T11:06:50.888Z,59.16
2019-01-22T11:07:50.876Z,60.12
2019-01-22T11:08:50.882Z,59.81
2019-01-22T11:09:50.853Z,60.64
2019-01-22T11:10:52.099Z,60.15
2019-01-22T11:11:50.851Z,60.04
2019-01-22T11:12:50.825Z,60.88
2019-01-22T11:13:50.840Z,60.88
2019-01-22T11:14:50.804Z,60.77
2019-01-22T11:15:50.802Z,60.88
2019-01-22T11:16:50.779Z,61.08
2019-01-22T11:17:50.774Z,60.57
2019-01-22T11:18:50.757Z,60.70
2019-01-22T11:19:50.761Z,61.11
2019-01-22T11:20:50.736Z,61.01
2019-01-22T11:21:50.719Z,61.66
2019-01-22T11:22:50.714Z,61.56
2019-01-22T11:23:50.698Z,62.29
2019-01-22T11:24:52.784Z,61.66
2019-01-22T11:25:50.676Z,62.37
2019-01-22T11:26:50.664Z,61.90
2019-01-22T11:27:50.654Z,61.41
2019-01-22T11:28:50.642Z,63.29
2019-01-22T11:29:50.637Z,62.80
2019-01-22T11:30:50.674Z,63.53
2019-01-22T11:31:50.674Z,63.53
2019-01-22T11:32:50.613Z,63.53
2019-01-22T11:33:50.593Z,63.42
2019-01-22T11:34:50.617Z,63.29
2019-01-22T11:35:50.569Z,62.04
2019-01-22T11:36:50.565Z,63.18
2019-01-22T11:37:50.545Z,62.77
2019-01-22T11:38:50.557Z,62.14
2019-01-22T11:39:50.526Z,63.11
2019-01-22T11:40:50.508Z,63.40
2019-01-22T11:41:50.503Z,63.50
2019-01-22T11:42:50.492Z,63.60
2019-01-22T11:43:50.505Z,63.50
2019-01-22T11:44:50.464Z,63.37
2019-01-22T11:45:50.453Z,62.43
2019-01-22T11:46:50.444Z,62.32
2019-01-22T11:47:50.438Z,63.06
2019-01-22T11:48:50.446Z,62.11
2019-01-22T11:49:50.422Z,61.69
2019-01-22T11:50:50.403Z,62.29
2019-01-22T11:51:50.392Z,61.35
2019-01-22T11:52:50.382Z,60.93
2019-01-22T11:53:50.372Z,61.04
2019-01-22T11:54:50.415Z,60.83
2019-01-22T11:55:50.810Z,61.15
2019-01-22T11:56:50.334Z,60.93
2019-01-22T11:57:50.320Z,61.46
2019-01-22T11:58:50.314Z,62.08
2019-01-22T11:59:50.305Z,61.98
2019-01-22T12:00:50.329Z,61.98
2019-01-22T12:01:50.281Z,61.77
2019-01-22T12:02:50.266Z,61.56
2019-01-22T12:03:50.314Z,62.40
2019-01-22T12:04:50.288Z,62.99
2019-01-22T12:05:53.273Z,62.37
2019-01-22T12:06:50.225Z,62.79
2019-01-22T12:07:50.217Z,62.37
2019-01-22T12:08:50.201Z,62.89
2019-01-22T12:09:50.233Z,63.20
2019-01-22T12:10:50.181Z,63.31
2019-01-22T12:11:50.170Z,63.42
2019-01-22T12:12:50.161Z,63.20
2019-01-22T12:13:53.969Z,64.25
2019-01-22T12:14:50.147Z,64.36
2019-01-22T12:15:50.454Z,64.56
2019-01-22T12:16:50.114Z,64.07
2019-01-22T12:17:50.107Z,63.93
2019-01-22T12:18:50.089Z,63.83
2019-01-22T12:19:50.077Z,64.04
2019-01-22T12:20:50.075Z,64.56
2019-01-22T12:21:50.096Z,65.09
2019-01-22T12:22:50.048Z,63.93
2019-01-22T12:23:50.050Z,64.14
2019-01-22T12:24:50.021Z,64.04
2019-01-22T12:25:50.015Z,63.10
2019-01-22T12:26:50.002Z,63.96
2019-01-22T12:27:49.993Z,64.70
2019-01-22T12:28:50.041Z,65.11
2019-01-22T12:29:49.969Z,64.70
2019-01-22T12:30:49.958Z,64.77
2019-01-22T12:31:49.949Z,64.67
2019-01-22T12:32:49.951Z,65.30
2019-01-22T12:33:49.929Z,64.56
2019-01-22T12:34:49.944Z,64.98
2019-01-22T12:35:49.924Z,64.01
2019-01-22T12:36:49.889Z,64.01
2019-01-22T12:37:49.885Z,64.53
2019-01-22T12:38:49.873Z,64.01
2019-01-22T12:39:49.893Z,64.22
2019-01-22T12:40:49.848Z,63.07
2019-01-22T12:41:49.841Z,62.96
2019-01-22T12:42:49.827Z,63.18
2019-01-22T12:43:49.865Z,62.45
2019-01-22T12:44:49.867Z,62.34
2019-01-22T12:45:49.794Z,62.45
2019-01-22T12:46:49.780Z,62.73
2019-01-22T12:47:49.773Z,62.86
2019-01-22T12:48:49.783Z,62.65
2019-01-22T12:49:49.752Z,63.07
2019-01-22T12:50:49.752Z,62.34
2019-01-22T12:51:49.724Z,62.45
2019-01-22T12:52:49.716Z,62.65